KOMK/OMK METAR and TAF weather

Enter ICAO airport designator
Station Type Date Time Source
KOMK METAR 2019/09/20 19:53 UTC NOAA

KOMK 201953Z AUTO 02013G21KT 10SM CLR 23/07 A2998 RMK AO2 SLP148 T02280067


Station Type Date Time Source
KOMK Decoded METAR 2019/09/20 19:53 UTC NOAA

OMAK AIRPORT, WA, United States (KOMK) 48-28N 119-31W 395M
Sep 20, 2019 - 03:53 PM EDT / 2019.09.20 1953 UTC
Wind: from the NNE (020 degrees) at 15 MPH (13 KT) gusting to 24 MPH (21 KT):0
Visibility: 10 mile(s):0
Sky conditions: clear
Temperature: 73.0 F (22.8 C)
Dew Point: 44.1 F (6.7 C)
Relative Humidity: 35%
Pressure (altimeter): 29.98 in. Hg (1015 hPa)
ob: KOMK 201953Z AUTO 02013G21KT 10SM CLR 23/07 A2998 RMK AO2 SLP148 T02280067
cycle: 20

Station Type Date Time Source
KOMK TAF UTC NOAA

Error!

Example: see airport list